sensor_id;sensor_type;location;lat;lon;timestamp;P1;durP1;ratioP1;P2;durP2;ratioP2
64342;SDS011;50675;53.530;-6.312;2023-06-10T00:04:16;25.00;;;13.48;;
64342;SDS011;50675;53.530;-6.312;2023-06-10T00:22:25;19.50;;;11.77;;
64342;SDS011;50675;53.530;-6.312;2023-06-10T01:17:37;22.65;;;12.38;;
64342;SDS011;50675;53.530;-6.312;2023-06-10T01:48:53;22.35;;;11.73;;
64342;SDS011;50675;53.530;-6.312;2023-06-10T02:12:35;26.55;;;13.10;;
64342;SDS011;50675;53.530;-6.312;2023-06-10T02:15:04;26.92;;;13.25;;
64342;SDS011;50675;53.530;-6.312;2023-06-10T02:37:58;23.50;;;12.30;;
64342;SDS011;50675;53.530;-6.312;2023-06-10T02:40:35;25.13;;;13.32;;
64342;SDS011;50675;53.530;-6.312;2023-06-10T02:52:05;21.52;;;12.20;;
64342;SDS011;50675;53.530;-6.312;2023-06-10T03:13:32;24.15;;;12.23;;
64342;SDS011;50675;53.530;-6.312;2023-06-10T04:03:57;26.33;;;10.95;;
64342;SDS011;50675;53.530;-6.312;2023-06-10T04:11:14;19.17;;;10.38;;
64342;SDS011;50675;53.530;-6.312;2023-06-10T05:16:26;27.00;;;9.65;;
64342;SDS011;50675;53.530;-6.312;2023-06-10T05:46:44;18.63;;;8.25;;
64342;SDS011;50675;53.530;-6.312;2023-06-10T06:04:48;18.48;;;9.60;;
64342;SDS011;50675;53.530;-6.312;2023-06-10T06:07:14;28.10;;;9.93;;
64342;SDS011;50675;53.530;-6.312;2023-06-10T06:09:40;21.20;;;9.93;;
64342;SDS011;50675;53.530;-6.312;2023-06-10T06:12:06;26.38;;;10.82;;
64342;SDS011;50675;53.530;-6.312;2023-06-10T06:14:36;23.40;;;9.40;;
64342;SDS011;50675;53.530;-6.312;2023-06-10T06:17:05;21.25;;;9.77;;
64342;SDS011;50675;53.530;-6.312;2023-06-10T06:19:30;21.58;;;10.32;;
64342;SDS011;50675;53.530;-6.312;2023-06-10T06:21:56;20.65;;;10.07;;
64342;SDS011;50675;53.530;-6.312;2023-06-10T06:24:22;20.58;;;9.23;;
64342;SDS011;50675;53.530;-6.312;2023-06-10T06:26:47;23.42;;;10.40;;
64342;SDS011;50675;53.530;-6.312;2023-06-10T06:29:13;20.00;;;9.13;;
64342;SDS011;50675;53.530;-6.312;2023-06-10T06:31:39;20.55;;;10.27;;
64342;SDS011;50675;53.530;-6.312;2023-06-10T06:34:05;22.15;;;9.63;;
64342;SDS011;50675;53.530;-6.312;2023-06-10T06:36:31;20.95;;;9.88;;
64342;SDS011;50675;53.530;-6.312;2023-06-10T06:38:57;17.52;;;10.07;;
64342;SDS011;50675;53.530;-6.312;2023-06-10T06:41:25;20.98;;;10.18;;
64342;SDS011;50675;53.530;-6.312;2023-06-10T06:43:53;24.50;;;9.65;;
64342;SDS011;50675;53.530;-6.312;2023-06-10T06:46:19;23.17;;;9.98;;
64342;SDS011;50675;53.530;-6.312;2023-06-10T06:48:46;19.20;;;10.27;;
64342;SDS011;50675;53.530;-6.312;2023-06-10T06:51:12;20.23;;;10.18;;
64342;SDS011;50675;53.530;-6.312;2023-06-10T06:53:38;22.70;;;9.45;;
64342;SDS011;50675;53.530;-6.312;2023-06-10T06:56:12;22.73;;;11.18;;
64342;SDS011;50675;53.530;-6.312;2023-06-10T06:58:39;19.35;;;9.63;;
64342;SDS011;50675;53.530;-6.312;2023-06-10T07:01:05;18.05;;;9.32;;
64342;SDS011;50675;53.530;-6.312;2023-06-10T07:03:30;23.77;;;9.93;;
64342;SDS011;50675;53.530;-6.312;2023-06-10T07:05:59;24.42;;;9.63;;
64342;SDS011;50675;53.530;-6.312;2023-06-10T07:08:26;24.10;;;10.43;;
64342;SDS011;50675;53.530;-6.312;2023-06-10T07:10:51;18.77;;;8.95;;
64342;SDS011;50675;53.530;-6.312;2023-06-10T07:13:17;18.23;;;9.68;;
64342;SDS011;50675;53.530;-6.312;2023-06-10T07:15:43;18.55;;;9.57;;
64342;SDS011;50675;53.530;-6.312;2023-06-10T07:18:09;21.35;;;10.20;;
64342;SDS011;50675;53.530;-6.312;2023-06-10T07:20:35;17.83;;;9.68;;
64342;SDS011;50675;53.530;-6.312;2023-06-10T07:23:00;18.40;;;9.77;;
64342;SDS011;50675;53.530;-6.312;2023-06-10T07:25:26;22.50;;;9.80;;
64342;SDS011;50675;53.530;-6.312;2023-06-10T07:27:52;24.60;;;9.95;;
64342;SDS011;50675;53.530;-6.312;2023-06-10T07:30:18;20.52;;;9.80;;
64342;SDS011;50675;53.530;-6.312;2023-06-10T07:32:44;23.98;;;10.38;;
64342;SDS011;50675;53.530;-6.312;2023-06-10T07:35:13;20.77;;;10.65;;
64342;SDS011;50675;53.530;-6.312;2023-06-10T07:37:39;21.73;;;10.90;;
64342;SDS011;50675;53.530;-6.312;2023-06-10T07:40:08;24.77;;;11.15;;
64342;SDS011;50675;53.530;-6.312;2023-06-10T07:42:40;23.23;;;9.80;;
64342;SDS011;50675;53.530;-6.312;2023-06-10T07:45:07;21.77;;;9.77;;
64342;SDS011;50675;53.530;-6.312;2023-06-10T07:47:33;22.42;;;9.65;;
64342;SDS011;50675;53.530;-6.312;2023-06-10T07:49:59;19.42;;;9.80;;
64342;SDS011;50675;53.530;-6.312;2023-06-10T07:52:25;29.85;;;10.52;;
64342;SDS011;50675;53.530;-6.312;2023-06-10T07:54:51;19.98;;;9.63;;
64342;SDS011;50675;53.530;-6.312;2023-06-10T07:57:18;20.02;;;10.50;;
64342;SDS011;50675;53.530;-6.312;2023-06-10T07:59:44;18.83;;;8.75;;
64342;SDS011;50675;53.530;-6.312;2023-06-10T08:02:10;22.63;;;9.65;;
64342;SDS011;50675;53.530;-6.312;2023-06-10T08:04:36;22.33;;;9.90;;
64342;SDS011;50675;53.530;-6.312;2023-06-10T08:07:05;23.52;;;9.32;;
64342;SDS011;50675;53.530;-6.312;2023-06-10T08:09:30;19.70;;;9.63;;
64342;SDS011;50675;53.530;-6.312;2023-06-10T08:11:59;18.42;;;9.95;;
64342;SDS011;50675;53.530;-6.312;2023-06-10T08:14:24;21.13;;;10.50;;
64342;SDS011;50675;53.530;-6.312;2023-06-10T08:16:50;20.52;;;10.02;;
64342;SDS011;50675;53.530;-6.312;2023-06-10T08:19:16;18.85;;;9.32;;
64342;SDS011;50675;53.530;-6.312;2023-06-10T08:21:42;27.25;;;10.80;;
64342;SDS011;50675;53.530;-6.312;2023-06-10T08:24:09;17.00;;;9.68;;
64342;SDS011;50675;53.530;-6.312;2023-06-10T08:26:35;18.77;;;9.05;;
64342;SDS011;50675;53.530;-6.312;2023-06-10T08:29:01;21.75;;;11.23;;
64342;SDS011;50675;53.530;-6.312;2023-06-10T08:31:27;17.50;;;10.13;;
64342;SDS011;50675;53.530;-6.312;2023-06-10T08:33:53;18.85;;;9.85;;
64342;SDS011;50675;53.530;-6.312;2023-06-10T08:36:19;22.00;;;10.50;;
64342;SDS011;50675;53.530;-6.312;2023-06-10T08:38:44;19.38;;;9.75;;
64342;SDS011;50675;53.530;-6.312;2023-06-10T08:41:12;18.92;;;9.70;;
64342;SDS011;50675;53.530;-6.312;2023-06-10T08:44:27;27.15;;;10.02;;
64342;SDS011;50675;53.530;-6.312;2023-06-10T08:46:33;15.40;;;9.05;;
64342;SDS011;50675;53.530;-6.312;2023-06-10T08:49:02;15.05;;;10.32;;
64342;SDS011;50675;53.530;-6.312;2023-06-10T08:51:30;19.88;;;9.73;;
64342;SDS011;50675;53.530;-6.312;2023-06-10T08:54:01;21.50;;;9.40;;
64342;SDS011;50675;53.530;-6.312;2023-06-10T08:56:31;19.67;;;10.02;;
64342;SDS011;50675;53.530;-6.312;2023-06-10T08:59:03;17.95;;;10.10;;
64342;SDS011;50675;53.530;-6.312;2023-06-10T09:01:28;18.30;;;10.35;;
64342;SDS011;50675;53.530;-6.312;2023-06-10T09:03:55;23.13;;;10.57;;
64342;SDS011;50675;53.530;-6.312;2023-06-10T09:06:22;20.90;;;10.20;;
64342;SDS011;50675;53.530;-6.312;2023-06-10T09:08:48;22.85;;;10.68;;
64342;SDS011;50675;53.530;-6.312;2023-06-10T09:11:15;17.27;;;10.30;;
64342;SDS011;50675;53.530;-6.312;2023-06-10T09:13:40;17.67;;;9.80;;
64342;SDS011;50675;53.530;-6.312;2023-06-10T09:16:06;20.00;;;10.63;;
64342;SDS011;50675;53.530;-6.312;2023-06-10T09:18:31;33.05;;;10.32;;
64342;SDS011;50675;53.530;-6.312;2023-06-10T09:20:57;23.00;;;11.32;;
64342;SDS011;50675;53.530;-6.312;2023-06-10T09:23:23;20.42;;;10.77;;
64342;SDS011;50675;53.530;-6.312;2023-06-10T09:25:55;23.95;;;10.63;;
64342;SDS011;50675;53.530;-6.312;2023-06-10T09:28:23;22.40;;;10.82;;
64342;SDS011;50675;53.530;-6.312;2023-06-10T09:30:49;19.90;;;9.80;;
64342;SDS011;50675;53.530;-6.312;2023-06-10T09:33:15;20.08;;;11.02;;
64342;SDS011;50675;53.530;-6.312;2023-06-10T09:35:48;18.10;;;10.52;;
64342;SDS011;50675;53.530;-6.312;2023-06-10T09:38:19;17.08;;;11.02;;
64342;SDS011;50675;53.530;-6.312;2023-06-10T09:40:52;21.23;;;10.77;;
64342;SDS011;50675;53.530;-6.312;2023-06-10T09:43:19;21.95;;;12.38;;
64342;SDS011;50675;53.530;-6.312;2023-06-10T09:45:49;21.58;;;10.10;;
64342;SDS011;50675;53.530;-6.312;2023-06-10T09:48:18;22.95;;;11.15;;
64342;SDS011;50675;53.530;-6.312;2023-06-10T09:50:44;19.25;;;10.48;;
64342;SDS011;50675;53.530;-6.312;2023-06-10T09:53:11;21.50;;;11.25;;
64342;SDS011;50675;53.530;-6.312;2023-06-10T09:55:41;20.40;;;11.25;;
64342;SDS011;50675;53.530;-6.312;2023-06-10T09:58:07;20.83;;;10.55;;
64342;SDS011;50675;53.530;-6.312;2023-06-10T10:00:33;17.45;;;10.95;;
64342;SDS011;50675;53.530;-6.312;2023-06-10T10:02:59;22.23;;;12.10;;
64342;SDS011;50675;53.530;-6.312;2023-06-10T10:05:25;18.27;;;10.75;;
64342;SDS011;50675;53.530;-6.312;2023-06-10T10:07:52;22.15;;;10.90;;
64342;SDS011;50675;53.530;-6.312;2023-06-10T10:10:18;18.27;;;10.98;;
64342;SDS011;50675;53.530;-6.312;2023-06-10T10:12:46;22.70;;;11.48;;
64342;SDS011;50675;53.530;-6.312;2023-06-10T10:15:12;24.67;;;10.95;;
64342;SDS011;50675;53.530;-6.312;2023-06-10T10:17:46;24.83;;;11.38;;
64342;SDS011;50675;53.530;-6.312;2023-06-10T10:20:18;19.45;;;11.02;;
64342;SDS011;50675;53.530;-6.312;2023-06-10T10:22:47;20.65;;;10.82;;
64342;SDS011;50675;53.530;-6.312;2023-06-10T10:25:22;25.90;;;10.70;;
64342;SDS011;50675;53.530;-6.312;2023-06-10T10:27:55;18.60;;;10.20;;
64342;SDS011;50675;53.530;-6.312;2023-06-10T10:30:24;24.52;;;11.27;;
64342;SDS011;50675;53.530;-6.312;2023-06-10T10:32:52;17.95;;;10.20;;
64342;SDS011;50675;53.530;-6.312;2023-06-10T10:35:21;21.92;;;11.18;;
64342;SDS011;50675;53.530;-6.312;2023-06-10T10:37:49;20.00;;;11.07;;
64342;SDS011;50675;53.530;-6.312;2023-06-10T10:40:20;19.17;;;10.48;;
64342;SDS011;50675;53.530;-6.312;2023-06-10T10:42:47;17.00;;;10.80;;
64342;SDS011;50675;53.530;-6.312;2023-06-10T10:45:14;21.58;;;10.73;;
64342;SDS011;50675;53.530;-6.312;2023-06-10T10:47:40;21.50;;;10.68;;
64342;SDS011;50675;53.530;-6.312;2023-06-10T10:55:24;22.48;;;11.07;;
64342;SDS011;50675;53.530;-6.312;2023-06-10T10:57:58;21.58;;;10.85;;
64342;SDS011;50675;53.530;-6.312;2023-06-10T11:00:28;23.25;;;10.63;;
64342;SDS011;50675;53.530;-6.312;2023-06-10T11:02:57;21.85;;;10.70;;
64342;SDS011;50675;53.530;-6.312;2023-06-10T11:05:35;22.15;;;11.93;;
64342;SDS011;50675;53.530;-6.312;2023-06-10T11:08:07;19.95;;;10.98;;
64342;SDS011;50675;53.530;-6.312;2023-06-10T11:10:34;22.65;;;11.63;;
64342;SDS011;50675;53.530;-6.312;2023-06-10T11:13:09;25.08;;;11.15;;
64342;SDS011;50675;53.530;-6.312;2023-06-10T11:15:44;22.52;;;11.98;;
64342;SDS011;50675;53.530;-6.312;2023-06-10T11:18:13;20.38;;;11.63;;
64342;SDS011;50675;53.530;-6.312;2023-06-10T11:23:09;22.55;;;11.20;;
64342;SDS011;50675;53.530;-6.312;2023-06-10T11:25:39;18.52;;;10.73;;
64342;SDS011;50675;53.530;-6.312;2023-06-10T11:28:18;20.02;;;11.05;;
64342;SDS011;50675;53.530;-6.312;2023-06-10T11:30:45;20.75;;;10.48;;
64342;SDS011;50675;53.530;-6.312;2023-06-10T11:33:15;19.35;;;10.90;;
64342;SDS011;50675;53.530;-6.312;2023-06-10T11:35:42;23.25;;;10.93;;
64342;SDS011;50675;53.530;-6.312;2023-06-10T11:38:08;26.38;;;16.10;;
64342;SDS011;50675;53.530;-6.312;2023-06-10T11:40:36;22.33;;;12.23;;
64342;SDS011;50675;53.530;-6.312;2023-06-10T11:43:03;20.08;;;10.27;;
64342;SDS011;50675;53.530;-6.312;2023-06-10T11:45:30;55.47;;;25.65;;
64342;SDS011;50675;53.530;-6.312;2023-06-10T11:47:59;22.98;;;12.88;;
64342;SDS011;50675;53.530;-6.312;2023-06-10T11:50:31;20.23;;;10.82;;
64342;SDS011;50675;53.530;-6.312;2023-06-10T11:52:58;27.17;;;14.60;;
64342;SDS011;50675;53.530;-6.312;2023-06-10T11:55:42;24.95;;;13.20;;
64342;SDS011;50675;53.530;-6.312;2023-06-10T11:58:16;18.83;;;10.00;;
64342;SDS011;50675;53.530;-6.312;2023-06-10T12:03:12;22.08;;;12.65;;
64342;SDS011;50675;53.530;-6.312;2023-06-10T12:05:38;23.27;;;12.02;;
64342;SDS011;50675;53.530;-6.312;2023-06-10T12:08:07;23.33;;;12.48;;
64342;SDS011;50675;53.530;-6.312;2023-06-10T12:10:42;18.65;;;10.20;;
64342;SDS011;50675;53.530;-6.312;2023-06-10T12:13:14;20.23;;;11.43;;
64342;SDS011;50675;53.530;-6.312;2023-06-10T12:15:51;24.75;;;11.70;;
64342;SDS011;50675;53.530;-6.312;2023-06-10T12:18:20;21.70;;;11.55;;
64342;SDS011;50675;53.530;-6.312;2023-06-10T12:20:47;18.42;;;11.07;;
64342;SDS011;50675;53.530;-6.312;2023-06-10T12:23:14;21.73;;;12.45;;
64342;SDS011;50675;53.530;-6.312;2023-06-10T12:29:34;18.65;;;11.23;;
64342;SDS011;50675;53.530;-6.312;2023-06-10T12:32:03;19.27;;;10.95;;
64342;SDS011;50675;53.530;-6.312;2023-06-10T12:34:35;18.73;;;10.73;;
64342;SDS011;50675;53.530;-6.312;2023-06-10T12:37:05;18.35;;;10.38;;
64342;SDS011;50675;53.530;-6.312;2023-06-10T12:39:39;24.23;;;13.07;;
64342;SDS011;50675;53.530;-6.312;2023-06-10T12:42:06;38.60;;;15.70;;
64342;SDS011;50675;53.530;-6.312;2023-06-10T12:44:39;29.90;;;11.30;;
64342;SDS011;50675;53.530;-6.312;2023-06-10T12:47:12;21.42;;;11.45;;
64342;SDS011;50675;53.530;-6.312;2023-06-10T12:49:37;20.67;;;10.95;;
64342;SDS011;50675;53.530;-6.312;2023-06-10T12:52:04;17.35;;;10.85;;
64342;SDS011;50675;53.530;-6.312;2023-06-10T12:54:30;19.65;;;9.50;;
64342;SDS011;50675;53.530;-6.312;2023-06-10T12:56:56;19.58;;;11.02;;
64342;SDS011;50675;53.530;-6.312;2023-06-10T12:59:22;20.80;;;10.55;;
64342;SDS011;50675;53.530;-6.312;2023-06-10T13:01:50;25.92;;;12.48;;
64342;SDS011;50675;53.530;-6.312;2023-06-10T13:04:17;20.00;;;11.48;;
64342;SDS011;50675;53.530;-6.312;2023-06-10T13:06:43;17.67;;;10.70;;
64342;SDS011;50675;53.530;-6.312;2023-06-10T13:09:09;18.08;;;10.75;;
64342;SDS011;50675;53.530;-6.312;2023-06-10T13:11:35;19.00;;;11.43;;
64342;SDS011;50675;53.530;-6.312;2023-06-10T13:14:02;20.65;;;10.88;;
64342;SDS011;50675;53.530;-6.312;2023-06-10T13:16:30;17.35;;;11.30;;
64342;SDS011;50675;53.530;-6.312;2023-06-10T13:18:56;17.30;;;10.75;;
64342;SDS011;50675;53.530;-6.312;2023-06-10T13:21:22;19.52;;;10.75;;
64342;SDS011;50675;53.530;-6.312;2023-06-10T13:23:50;18.02;;;11.30;;
64342;SDS011;50675;53.530;-6.312;2023-06-10T13:26:16;23.48;;;11.55;;
64342;SDS011;50675;53.530;-6.312;2023-06-10T13:28:43;19.83;;;11.00;;
64342;SDS011;50675;53.530;-6.312;2023-06-10T13:31:09;19.15;;;10.93;;
64342;SDS011;50675;53.530;-6.312;2023-06-10T13:33:35;20.42;;;11.38;;
64342;SDS011;50675;53.530;-6.312;2023-06-10T13:36:00;22.27;;;11.60;;
64342;SDS011;50675;53.530;-6.312;2023-06-10T13:38:26;19.98;;;11.35;;
64342;SDS011;50675;53.530;-6.312;2023-06-10T13:40:52;19.45;;;11.20;;
64342;SDS011;50675;53.530;-6.312;2023-06-10T13:43:17;19.15;;;11.20;;
64342;SDS011;50675;53.530;-6.312;2023-06-10T13:45:43;19.63;;;11.40;;
64342;SDS011;50675;53.530;-6.312;2023-06-10T13:48:09;19.55;;;12.20;;
64342;SDS011;50675;53.530;-6.312;2023-06-10T13:50:34;19.05;;;11.27;;
64342;SDS011;50675;53.530;-6.312;2023-06-10T13:53:00;18.88;;;11.00;;
64342;SDS011;50675;53.530;-6.312;2023-06-10T13:55:26;18.08;;;10.15;;
64342;SDS011;50675;53.530;-6.312;2023-06-10T13:57:51;17.65;;;10.88;;
64342;SDS011;50675;53.530;-6.312;2023-06-10T14:00:17;20.73;;;10.88;;
64342;SDS011;50675;53.530;-6.312;2023-06-10T14:02:43;20.58;;;10.40;;
64342;SDS011;50675;53.530;-6.312;2023-06-10T14:05:10;17.50;;;10.68;;
64342;SDS011;50675;53.530;-6.312;2023-06-10T14:07:35;20.48;;;11.18;;
64342;SDS011;50675;53.530;-6.312;2023-06-10T14:10:02;19.40;;;11.98;;
64342;SDS011;50675;53.530;-6.312;2023-06-10T14:12:28;17.92;;;10.93;;
64342;SDS011;50675;53.530;-6.312;2023-06-10T14:14:55;19.65;;;11.00;;
64342;SDS011;50675;53.530;-6.312;2023-06-10T14:17:20;16.70;;;10.77;;
64342;SDS011;50675;53.530;-6.312;2023-06-10T14:19:48;90.50;;;43.95;;
64342;SDS011;50675;53.530;-6.312;2023-06-10T14:22:14;30.98;;;16.00;;
64342;SDS011;50675;53.530;-6.312;2023-06-10T14:24:40;35.47;;;19.23;;
64342;SDS011;50675;53.530;-6.312;2023-06-10T14:27:06;62.72;;;29.05;;
64342;SDS011;50675;53.530;-6.312;2023-06-10T14:29:32;21.08;;;11.90;;
64342;SDS011;50675;53.530;-6.312;2023-06-10T14:31:59;19.88;;;11.82;;
64342;SDS011;50675;53.530;-6.312;2023-06-10T14:34:25;19.75;;;11.23;;
64342;SDS011;50675;53.530;-6.312;2023-06-10T14:36:59;18.05;;;11.23;;
64342;SDS011;50675;53.530;-6.312;2023-06-10T14:39:25;22.70;;;11.75;;
64342;SDS011;50675;53.530;-6.312;2023-06-10T14:41:51;19.73;;;10.85;;
64342;SDS011;50675;53.530;-6.312;2023-06-10T14:44:20;22.80;;;12.05;;
64342;SDS011;50675;53.530;-6.312;2023-06-10T14:46:45;18.88;;;10.73;;
64342;SDS011;50675;53.530;-6.312;2023-06-10T14:49:11;18.75;;;10.88;;
64342;SDS011;50675;53.530;-6.312;2023-06-10T14:51:37;20.05;;;10.55;;
64342;SDS011;50675;53.530;-6.312;2023-06-10T14:54:03;18.02;;;10.82;;
64342;SDS011;50675;53.530;-6.312;2023-06-10T14:56:29;18.23;;;11.30;;
64342;SDS011;50675;53.530;-6.312;2023-06-10T14:58:55;19.65;;;11.50;;
64342;SDS011;50675;53.530;-6.312;2023-06-10T15:01:21;19.58;;;10.85;;
64342;SDS011;50675;53.530;-6.312;2023-06-10T15:03:46;15.73;;;10.07;;
64342;SDS011;50675;53.530;-6.312;2023-06-10T15:06:12;20.35;;;11.57;;
64342;SDS011;50675;53.530;-6.312;2023-06-10T15:08:38;15.30;;;10.90;;
64342;SDS011;50675;53.530;-6.312;2023-06-10T15:11:04;17.75;;;10.88;;
64342;SDS011;50675;53.530;-6.312;2023-06-10T15:13:30;21.55;;;11.55;;
64342;SDS011;50675;53.530;-6.312;2023-06-10T15:15:55;16.88;;;10.85;;
64342;SDS011;50675;53.530;-6.312;2023-06-10T15:18:21;20.60;;;11.43;;
64342;SDS011;50675;53.530;-6.312;2023-06-10T15:20:47;20.08;;;11.50;;
64342;SDS011;50675;53.530;-6.312;2023-06-10T15:23:13;20.98;;;11.90;;
64342;SDS011;50675;53.530;-6.312;2023-06-10T15:25:39;22.45;;;11.75;;
64342;SDS011;50675;53.530;-6.312;2023-06-10T15:28:06;20.23;;;12.13;;
64342;SDS011;50675;53.530;-6.312;2023-06-10T15:30:32;22.60;;;12.35;;
64342;SDS011;50675;53.530;-6.312;2023-06-10T15:32:57;21.50;;;11.15;;
64342;SDS011;50675;53.530;-6.312;2023-06-10T15:35:23;17.35;;;11.30;;
64342;SDS011;50675;53.530;-6.312;2023-06-10T15:37:49;21.05;;;11.93;;
64342;SDS011;50675;53.530;-6.312;2023-06-10T15:40:15;22.88;;;12.48;;
64342;SDS011;50675;53.530;-6.312;2023-06-10T15:42:41;22.20;;;12.30;;
64342;SDS011;50675;53.530;-6.312;2023-06-10T15:45:06;18.13;;;11.75;;
64342;SDS011;50675;53.530;-6.312;2023-06-10T15:47:35;18.17;;;12.75;;
64342;SDS011;50675;53.530;-6.312;2023-06-10T15:50:01;21.48;;;12.90;;
64342;SDS011;50675;53.530;-6.312;2023-06-10T15:52:27;22.35;;;12.63;;
64342;SDS011;50675;53.530;-6.312;2023-06-10T15:54:53;23.70;;;13.52;;
64342;SDS011;50675;53.530;-6.312;2023-06-10T15:57:19;21.63;;;12.90;;
64342;SDS011;50675;53.530;-6.312;2023-06-10T15:59:45;22.50;;;13.55;;
64342;SDS011;50675;53.530;-6.312;2023-06-10T16:02:11;23.15;;;12.90;;
64342;SDS011;50675;53.530;-6.312;2023-06-10T16:04:37;21.00;;;13.13;;
64342;SDS011;50675;53.530;-6.312;2023-06-10T16:07:03;21.65;;;14.75;;
64342;SDS011;50675;53.530;-6.312;2023-06-10T16:09:29;25.90;;;13.50;;
64342;SDS011;50675;53.530;-6.312;2023-06-10T16:11:55;20.20;;;13.40;;
64342;SDS011;50675;53.530;-6.312;2023-06-10T16:14:21;22.25;;;14.68;;
64342;SDS011;50675;53.530;-6.312;2023-06-10T16:16:47;20.40;;;14.05;;
64342;SDS011;50675;53.530;-6.312;2023-06-10T16:19:13;20.50;;;13.45;;
64342;SDS011;50675;53.530;-6.312;2023-06-10T16:21:38;21.25;;;13.45;;
64342;SDS011;50675;53.530;-6.312;2023-06-10T16:24:06;21.70;;;13.20;;
64342;SDS011;50675;53.530;-6.312;2023-06-10T16:26:34;21.60;;;13.27;;
64342;SDS011;50675;53.530;-6.312;2023-06-10T16:29:00;25.25;;;13.05;;
64342;SDS011;50675;53.530;-6.312;2023-06-10T16:31:26;22.25;;;13.18;;
64342;SDS011;50675;53.530;-6.312;2023-06-10T16:33:52;21.20;;;12.02;;
64342;SDS011;50675;53.530;-6.312;2023-06-10T16:36:20;23.67;;;13.38;;
64342;SDS011;50675;53.530;-6.312;2023-06-10T16:38:46;21.48;;;11.75;;
64342;SDS011;50675;53.530;-6.312;2023-06-10T16:41:12;22.63;;;12.98;;
64342;SDS011;50675;53.530;-6.312;2023-06-10T16:43:37;22.77;;;12.57;;
64342;SDS011;50675;53.530;-6.312;2023-06-10T16:46:03;18.90;;;12.95;;
64342;SDS011;50675;53.530;-6.312;2023-06-10T16:48:29;25.23;;;13.35;;
64342;SDS011;50675;53.530;-6.312;2023-06-10T16:50:55;22.48;;;12.85;;
64342;SDS011;50675;53.530;-6.312;2023-06-10T16:53:21;23.33;;;12.20;;
64342;SDS011;50675;53.530;-6.312;2023-06-10T16:55:47;20.75;;;12.88;;
64342;SDS011;50675;53.530;-6.312;2023-06-10T16:58:13;22.65;;;12.48;;
64342;SDS011;50675;53.530;-6.312;2023-06-10T17:00:39;23.50;;;13.30;;
64342;SDS011;50675;53.530;-6.312;2023-06-10T17:03:09;26.70;;;13.13;;
64342;SDS011;50675;53.530;-6.312;2023-06-10T17:05:36;23.20;;;12.68;;
64342;SDS011;50675;53.530;-6.312;2023-06-10T17:08:01;25.90;;;12.60;;
64342;SDS011;50675;53.530;-6.312;2023-06-10T17:10:27;26.10;;;13.73;;
64342;SDS011;50675;53.530;-6.312;2023-06-10T17:12:53;21.30;;;13.73;;
64342;SDS011;50675;53.530;-6.312;2023-06-10T17:15:19;24.02;;;13.15;;
64342;SDS011;50675;53.530;-6.312;2023-06-10T17:17:44;29.80;;;14.95;;
64342;SDS011;50675;53.530;-6.312;2023-06-10T17:20:10;28.23;;;13.52;;
64342;SDS011;50675;53.530;-6.312;2023-06-10T17:22:37;22.10;;;13.60;;
64342;SDS011;50675;53.530;-6.312;2023-06-10T17:25:03;27.45;;;15.25;;
64342;SDS011;50675;53.530;-6.312;2023-06-10T17:27:29;23.13;;;13.35;;
64342;SDS011;50675;53.530;-6.312;2023-06-10T17:29:55;25.27;;;14.18;;
64342;SDS011;50675;53.530;-6.312;2023-06-10T17:32:20;23.27;;;15.00;;
64342;SDS011;50675;53.530;-6.312;2023-06-10T17:34:46;25.88;;;14.15;;
64342;SDS011;50675;53.530;-6.312;2023-06-10T17:37:12;25.00;;;14.93;;
64342;SDS011;50675;53.530;-6.312;2023-06-10T17:39:37;39.88;;;16.17;;
64342;SDS011;50675;53.530;-6.312;2023-06-10T17:42:06;30.33;;;15.77;;
64342;SDS011;50675;53.530;-6.312;2023-06-10T17:44:32;26.17;;;14.02;;
64342;SDS011;50675;53.530;-6.312;2023-06-10T17:46:58;27.20;;;14.93;;
64342;SDS011;50675;53.530;-6.312;2023-06-10T17:49:25;24.70;;;14.35;;
64342;SDS011;50675;53.530;-6.312;2023-06-10T17:51:51;26.67;;;15.35;;
64342;SDS011;50675;53.530;-6.312;2023-06-10T17:54:18;26.27;;;15.50;;
64342;SDS011;50675;53.530;-6.312;2023-06-10T17:56:44;25.98;;;13.68;;
64342;SDS011;50675;53.530;-6.312;2023-06-10T17:59:10;23.52;;;14.65;;
64342;SDS011;50675;53.530;-6.312;2023-06-10T18:01:36;23.15;;;14.43;;
64342;SDS011;50675;53.530;-6.312;2023-06-10T18:04:03;33.38;;;17.60;;
64342;SDS011;50675;53.530;-6.312;2023-06-10T18:06:32;36.00;;;19.90;;
64342;SDS011;50675;53.530;-6.312;2023-06-10T18:08:58;42.75;;;25.33;;
64342;SDS011;50675;53.530;-6.312;2023-06-10T18:11:24;44.38;;;24.27;;
64342;SDS011;50675;53.530;-6.312;2023-06-10T18:13:51;41.78;;;22.13;;
64342;SDS011;50675;53.530;-6.312;2023-06-10T18:16:19;33.03;;;19.88;;
64342;SDS011;50675;53.530;-6.312;2023-06-10T18:18:47;32.70;;;19.67;;
64342;SDS011;50675;53.530;-6.312;2023-06-10T18:21:13;34.80;;;21.52;;
64342;SDS011;50675;53.530;-6.312;2023-06-10T18:23:40;35.58;;;22.00;;
64342;SDS011;50675;53.530;-6.312;2023-06-10T18:26:06;33.63;;;21.73;;
64342;SDS011;50675;53.530;-6.312;2023-06-10T18:28:32;31.25;;;22.02;;
64342;SDS011;50675;53.530;-6.312;2023-06-10T18:30:58;29.83;;;20.48;;
64342;SDS011;50675;53.530;-6.312;2023-06-10T18:33:25;30.27;;;18.50;;
64342;SDS011;50675;53.530;-6.312;2023-06-10T18:35:52;31.42;;;19.65;;
64342;SDS011;50675;53.530;-6.312;2023-06-10T18:38:17;33.35;;;20.55;;
64342;SDS011;50675;53.530;-6.312;2023-06-10T18:40:43;28.58;;;19.10;;
64342;SDS011;50675;53.530;-6.312;2023-06-10T18:43:09;31.13;;;19.40;;
64342;SDS011;50675;53.530;-6.312;2023-06-10T18:45:35;31.58;;;20.25;;
64342;SDS011;50675;53.530;-6.312;2023-06-10T18:48:03;35.33;;;20.88;;
64342;SDS011;50675;53.530;-6.312;2023-06-10T18:50:29;36.42;;;21.00;;
64342;SDS011;50675;53.530;-6.312;2023-06-10T18:52:55;34.00;;;21.15;;
64342;SDS011;50675;53.530;-6.312;2023-06-10T18:55:22;34.63;;;20.05;;
64342;SDS011;50675;53.530;-6.312;2023-06-10T18:57:48;35.20;;;19.77;;
64342;SDS011;50675;53.530;-6.312;2023-06-10T19:00:14;32.85;;;19.83;;
64342;SDS011;50675;53.530;-6.312;2023-06-10T19:02:40;35.97;;;20.23;;
64342;SDS011;50675;53.530;-6.312;2023-06-10T19:05:07;29.23;;;19.23;;
64342;SDS011;50675;53.530;-6.312;2023-06-10T19:07:34;32.83;;;20.05;;
64342;SDS011;50675;53.530;-6.312;2023-06-10T19:10:01;32.75;;;19.75;;
64342;SDS011;50675;53.530;-6.312;2023-06-10T19:12:27;29.85;;;18.40;;
64342;SDS011;50675;53.530;-6.312;2023-06-10T19:14:53;30.50;;;19.65;;
64342;SDS011;50675;53.530;-6.312;2023-06-10T19:17:18;31.33;;;17.52;;
64342;SDS011;50675;53.530;-6.312;2023-06-10T19:19:44;26.52;;;17.60;;
64342;SDS011;50675;53.530;-6.312;2023-06-10T19:22:10;32.65;;;17.20;;
64342;SDS011;50675;53.530;-6.312;2023-06-10T19:24:36;30.27;;;17.77;;
64342;SDS011;50675;53.530;-6.312;2023-06-10T19:27:05;25.17;;;17.58;;
64342;SDS011;50675;53.530;-6.312;2023-06-10T19:29:32;30.30;;;17.95;;
64342;SDS011;50675;53.530;-6.312;2023-06-10T19:31:58;25.50;;;16.80;;
64342;SDS011;50675;53.530;-6.312;2023-06-10T19:34:25;31.80;;;17.95;;
64342;SDS011;50675;53.530;-6.312;2023-06-10T19:36:51;27.33;;;17.55;;
64342;SDS011;50675;53.530;-6.312;2023-06-10T19:39:17;29.30;;;18.35;;
64342;SDS011;50675;53.530;-6.312;2023-06-10T19:41:43;27.02;;;17.55;;
64342;SDS011;50675;53.530;-6.312;2023-06-10T19:44:09;30.42;;;17.10;;
64342;SDS011;50675;53.530;-6.312;2023-06-10T19:46:35;28.98;;;17.05;;
64342;SDS011;50675;53.530;-6.312;2023-06-10T22:50:44;35.70;;;21.88;;
64342;SDS011;50675;53.530;-6.312;2023-06-10T22:54:07;37.22;;;21.70;;
64342;SDS011;50675;53.530;-6.312;2023-06-10T22:56:36;44.88;;;25.30;;